Time;durP1;ratioP1;P1;durP2;ratioP2;P2;SDS_P1;SDS_P2;PMS_P1;PMS_P2;Temp;Humidity;BMP_temperature;BMP_pressure;BME280_temperature;BME280_humidity;BME280_pressure;Samples;Min_cycle;Max_cycle;Signal;HPM_P1;HPM_P2
2024/01/26 05:30:31;;;;;;;;;10.50;10.50;;;;;20.39;50.55;102168.63;5015442;28;46384;-75
2024/01/26 05:32:56;;;;;;;;;10.25;8.75;;;;;20.38;50.47;102153.25;5007678;28;45261;-74
2024/01/26 05:35:21;;;;;;;;;12.00;12.00;;;;;20.36;50.13;102154.31;5013167;28;45467;-75
2024/01/26 05:37:47;;;;;;;;;8.75;8.75;;;;;20.46;50.07;102154.59;5014995;28;45506;-75
2024/01/26 05:40:13;;;;;;;;;8.00;6.25;;;;;20.56;49.73;102151.16;5013686;28;45292;-74
2024/01/26 05:42:38;;;;;;;;;11.50;7.50;;;;;20.53;49.93;102137.75;5017572;28;45248;-74
2024/01/26 05:45:04;;;;;;;;;10.00;8.50;;;;;20.71;49.57;102180.13;4999735;28;45863;-74
2024/01/26 05:47:29;;;;;;;;;9.50;6.50;;;;;20.80;49.05;102150.53;5017270;28;45221;-74
2024/01/26 05:49:54;;;;;;;;;12.00;12.00;;;;;20.47;49.97;102164.50;5017312;28;48575;-74
2024/01/26 05:52:20;;;;;;;;;11.00;9.75;;;;;20.81;49.51;102171.34;5016668;28;57248;-75
2024/01/26 05:54:45;;;;;;;;;7.50;7.50;;;;;20.50;49.55;102157.00;5017260;28;45505;-73
2024/01/26 05:57:11;;;;;;;;;8.00;7.50;;;;;20.53;49.53;102186.78;5017295;28;46036;-74
2024/01/26 05:59:37;;;;;;;;;7.75;6.00;;;;;20.80;49.37;102177.78;5018825;28;46075;-75
2024/01/26 06:02:03;;;;;;;;;8.50;7.25;;;;;20.58;49.93;102186.50;5022821;28;45378;-74
2024/01/26 06:04:29;;;;;;;;;6.75;6.00;;;;;20.35;50.47;102183.38;5023489;28;45472;-73
2024/01/26 06:06:54;;;;;;;;;10.50;8.25;;;;;20.46;50.22;102184.56;5017065;28;45298;-74
2024/01/26 06:09:20;;;;;;;;;14.25;8.25;;;;;20.53;50.05;102197.69;5016445;28;61296;-73
2024/01/26 06:11:46;;;;;;;;;10.00;8.50;;;;;20.16;50.79;102199.09;5016968;28;45541;-75
2024/01/26 06:14:11;;;;;;;;;10.50;8.50;;;;;20.60;50.00;102187.25;5017030;28;45375;-74
2024/01/26 06:16:37;;;;;;;;;12.00;9.25;;;;;19.92;51.15;102206.97;4998764;28;46006;-76
2024/01/26 06:19:02;;;;;;;;;11.50;11.00;;;;;20.59;49.89;102205.44;5016687;28;45932;-75
2024/01/26 06:21:28;;;;;;;;;9.00;8.00;;;;;20.85;49.49;102203.75;5017166;28;45471;-75
2024/01/26 06:23:53;;;;;;;;;11.50;10.00;;;;;20.74;49.64;102188.13;5016721;28;45332;-74
2024/01/26 06:26:20;;;;;;;;;10.00;10.00;;;;;20.79;49.50;102198.72;5011789;28;49438;-74
2024/01/26 06:28:45;;;;;;;;;10.50;9.25;;;;;20.82;49.55;102194.91;5009546;28;47325;-74
2024/01/26 06:31:10;;;;;;;;;7.50;7.50;;;;;20.85;49.40;102201.03;5016395;28;45676;-74
2024/01/26 06:33:36;;;;;;;;;12.25;11.00;;;;;20.49;49.92;102189.81;5016439;28;45469;-76
2024/01/26 06:36:01;;;;;;;;;10.75;9.75;;;;;20.50;50.15;102195.13;5016168;28;52285;-74
2024/01/26 06:38:27;;;;;;;;;6.75;6.75;;;;;20.49;49.92;102193.41;5016255;28;46244;-74
2024/01/26 06:40:52;;;;;;;;;8.25;5.75;;;;;20.85;49.61;102208.31;5012668;28;45510;-73
2024/01/26 06:43:19;;;;;;;;;10.50;10.00;;;;;20.31;50.36;102217.22;5016236;28;46881;-76
2024/01/26 06:45:45;;;;;;;;;9.25;4.50;;;;;20.49;50.47;102212.50;5016262;28;45451;-74
2024/01/26 06:48:10;;;;;;;;;7.00;6.50;;;;;20.56;50.29;102215.69;5017048;28;45199;-74
2024/01/26 06:50:36;;;;;;;;;8.25;8.25;;;;;20.51;50.59;102218.69;5016627;28;45384;-74
2024/01/26 06:53:01;;;;;;;;;12.25;10.25;;;;;20.76;50.06;102212.53;4998987;28;45262;-74
2024/01/26 06:55:26;;;;;;;;;14.50;9.25;;;;;20.75;49.93;102219.88;5016430;28;45461;-74
2024/01/26 06:57:51;;;;;;;;;10.50;10.50;;;;;20.78;49.85;102227.81;4998510;28;48344;-74
2024/01/26 07:00:18;;;;;;;;;9.50;7.75;;;;;20.72;50.07;102235.53;5016755;28;45502;-74
2024/01/26 07:02:43;;;;;;;;;8.00;7.50;;;;;20.58;50.03;102244.59;5027453;28;45373;-73
2024/01/26 07:05:08;;;;;;;;;7.00;5.50;;;;;21.00;49.30;102240.94;4998581;28;46190;-72
2024/01/26 07:07:34;;;;;;;;;8.00;6.25;;;;;21.03;49.26;102228.94;5018367;28;46028;-75
2024/01/26 07:09:59;;;;;;;;;7.50;6.75;;;;;20.80;49.55;102237.75;5016537;28;45302;-76
2024/01/26 07:12:24;;;;;;;;;7.00;7.00;;;;;21.04;49.44;102230.69;5016232;28;45450;-79
2024/01/26 07:14:50;;;;;;;;;4.00;4.00;;;;;20.88;49.97;102240.84;5016073;28;45305;-81
2024/01/26 07:17:17;;;;;;;;;10.25;9.00;;;;;20.83;50.38;102219.34;5017230;28;46369;-81
2024/01/26 07:19:42;;;;;;;;;8.25;8.25;;;;;20.82;50.97;102235.81;5016450;28;45411;-80
2024/01/26 07:22:07;;;;;;;;;7.00;5.50;;;;;21.00;50.51;102240.94;5015979;28;45408;-82
2024/01/26 07:24:33;;;;;;;;;5.00;5.00;;;;;20.92;50.93;102232.38;5015912;28;45336;-82
2024/01/26 07:26:58;;;;;;;;;8.50;7.25;;;;;20.95;50.70;102234.88;5005556;28;46504;-86
2024/01/26 07:29:24;;;;;;;;;7.50;6.25;;;;;20.81;51.40;102243.09;5015384;28;45384;-84
2024/01/26 07:31:50;;;;;;;;;7.75;7.75;;;;;20.65;51.83;102256.84;4998543;28;45539;-84
2024/01/26 07:34:16;;;;;;;;;6.25;6.00;;;;;20.30;51.66;102199.13;5001155;28;46564;-81
2024/01/26 07:36:41;;;;;;;;;7.25;7.25;;;;;20.39;52.10;102233.13;5015798;28;46038;-81
2024/01/26 07:39:07;;;;;;;;;6.25;6.25;;;;;20.78;51.10;102246.03;4997764;28;45365;-79
2024/01/26 07:41:33;;;;;;;;;9.25;9.25;;;;;21.07;50.86;102277.72;5012229;28;45343;-76
2024/01/26 07:43:59;;;;;;;;;7.25;7.25;;;;;20.93;51.08;102260.50;4997899;28;47182;-79
2024/01/26 07:46:25;;;;;;;;;10.50;7.25;;;;;20.27;52.73;102255.63;5012778;28;46251;-82
2024/01/26 07:48:50;;;;;;;;;5.75;5.75;;;;;20.65;52.37;102280.50;4997006;28;45555;-76
2024/01/26 07:51:16;;;;;;;;;5.25;4.00;;;;;20.70;52.39;102281.94;5015270;28;45399;-75
2024/01/26 07:53:42;;;;;;;;;5.00;5.00;;;;;20.67;52.51;102279.41;4997412;28;45500;-72
2024/01/26 07:56:09;;;;;;;;;5.00;4.00;;;;;20.64;52.01;102281.47;5014317;28;45352;-75
2024/01/26 07:58:34;;;;;;;;;6.25;6.25;;;;;20.66;52.62;102295.88;5014784;28;45254;-76
2024/01/26 08:01:00;;;;;;;;;5.75;5.75;;;;;20.15;53.83;102289.97;5014788;28;45409;-73
2024/01/26 08:03:25;;;;;;;;;7.25;7.25;;;;;20.60;52.51;102278.06;5027070;28;45525;-75
2024/01/26 08:05:50;;;;;;;;;5.00;5.00;;;;;20.91;52.04;102284.28;5014732;28;46038;-74
2024/01/26 08:08:15;;;;;;;;;7.00;6.00;;;;;20.56;52.63;102279.25;5012462;28;58156;-75
2024/01/26 08:10:41;;;;;;;;;2.00;2.00;;;;;20.19;53.81;102288.78;4994713;28;47791;-75
2024/01/26 08:13:06;;;;;;;;;6.25;5.00;;;;;20.35;53.43;102305.97;5012886;28;45652;-73
2024/01/26 08:15:31;;;;;;;;;4.50;4.50;;;;;20.53;52.67;102284.00;5015314;28;51374;-74
2024/01/26 08:17:57;;;;;;;;;4.50;4.50;;;;;20.77;52.23;102302.38;5014558;28;50011;-72
2024/01/26 08:20:22;;;;;;;;;6.75;6.75;;;;;20.69;52.35;102321.06;5014564;28;45451;-73
2024/01/26 08:22:48;;;;;;;;;4.50;4.50;;;;;20.62;52.27;102308.81;5013789;28;51269;-73
2024/01/26 08:25:13;;;;;;;;;6.50;4.00;;;;;20.51;52.96;102314.06;5014125;28;59171;-73
2024/01/26 08:27:39;;;;;;;;;4.00;4.00;;;;;20.70;52.68;102320.09;5003338;28;45860;-77
2024/01/26 08:30:05;;;;;;;;;7.25;5.25;;;;;21.03;52.07;102327.09;5012547;28;45478;-71
2024/01/26 08:32:30;;;;;;;;;6.25;5.00;;;;;20.82;52.32;102334.81;5013361;28;45373;-72
2024/01/26 08:34:56;;;;;;;;;5.00;5.00;;;;;20.82;52.60;102326.66;5013028;28;46372;-73
2024/01/26 08:37:23;;;;;;;;;3.00;3.00;;;;;20.85;52.69;102337.34;5014258;28;45468;-78
2024/01/26 08:39:48;;;;;;;;;3.00;3.00;;;;;21.00;52.20;102330.91;5013638;28;45705;-76
2024/01/26 08:42:13;;;;;;;;;4.25;2.75;;;;;21.24;51.83;102341.25;5009795;28;50073;-77
2024/01/26 08:44:39;;;;;;;;;6.00;6.00;;;;;20.97;52.49;102346.59;4995939;28;52869;-77
2024/01/26 08:47:04;;;;;;;;;3.00;3.00;;;;;20.91;52.41;102338.81;5013940;28;55667;-75
2024/01/26 08:49:30;;;;;;;;;4.25;4.00;;;;;20.98;52.80;102351.94;5014652;28;45333;-76
2024/01/26 08:51:57;;;;;;;;;3.50;3.00;;;;;21.04;52.14;102337.91;5014745;28;45338;-75
2024/01/26 08:54:25;;;;;;;;;2.25;2.25;;;;;21.28;51.77;102351.84;5015156;28;46202;-76
2024/01/26 08:56:54;;;;;;;;;2.00;2.00;;;;;21.05;52.59;102366.06;4996232;28;45560;-75
2024/01/26 08:59:19;;;;;;;;;3.50;3.50;;;;;21.14;52.12;102360.00;4996439;28;45380;-76
2024/01/26 09:01:45;;;;;;;;;2.00;2.00;;;;;20.85;52.78;102341.91;5016915;28;45596;-75
2024/01/26 09:04:10;;;;;;;;;4.25;2.75;;;;;21.07;52.38;102364.13;5015527;28;45855;-74
2024/01/26 09:06:36;;;;;;;;;2.00;2.00;;;;;21.00;53.11;102369.09;5013361;28;51053;-75
2024/01/26 09:09:02;;;;;;;;;3.50;3.50;;;;;20.92;52.85;102346.03;5013982;28;45431;-75
2024/01/26 09:11:28;;;;;;;;;2.50;2.50;;;;;21.26;52.69;102366.56;5013787;28;45619;-75
2024/01/26 09:13:53;;;;;;;;;7.00;5.00;;;;;21.32;52.41;102356.13;5016635;28;46183;-76
2024/01/26 09:16:19;;;;;;;;;5.00;5.00;;;;;21.29;52.13;102369.97;4999033;28;45360;-76
2024/01/26 09:18:44;;;;;;;;;4.25;4.25;;;;;21.20;52.37;102353.31;5016419;28;45735;-77
2024/01/26 09:21:12;;;;;;;;;6.25;4.75;;;;;21.30;52.38;102379.91;5017140;28;45401;-76
2024/01/26 09:23:39;;;;;;;;;3.25;3.25;;;;;21.38;51.95;102373.94;4999096;28;48630;-75
2024/01/26 09:26:04;;;;;;;;;4.25;3.00;;;;;21.25;52.09;102367.53;5014306;28;45418;-77
2024/01/26 09:28:30;;;;;;;;;4.25;2.50;;;;;21.51;51.78;102373.06;5008131;28;45489;-76
2024/01/26 09:30:55;;;;;;;;;3.00;3.00;;;;;21.59;51.67;102379.84;4999153;28;45355;-75
2024/01/26 09:33:21;;;;;;;;;5.00;5.00;;;;;21.49;51.67;102390.50;5016972;28;46513;-75
2024/01/26 09:35:47;;;;;;;;;5.25;4.00;;;;;21.45;51.93;102408.91;5017351;28;45337;-75
2024/01/26 09:38:12;;;;;;;;;3.00;3.00;;;;;21.37;51.67;102407.66;5017098;28;45495;-76
2024/01/26 09:40:39;;;;;;;;;4.00;4.00;;;;;21.61;51.71;102416.97;4995940;28;45407;-77
2024/01/26 09:43:06;;;;;;;;;5.00;5.00;;;;;21.48;51.94;102425.09;5016829;28;45388;-74
2024/01/26 09:45:32;;;;;;;;;3.00;3.00;;;;;21.50;51.71;102411.34;5016496;28;45406;-75
2024/01/26 09:47:58;;;;;;;;;2.00;2.00;;;;;21.46;52.18;102431.63;5017078;28;45568;-78
2024/01/26 09:50:23;;;;;;;;;1.00;1.00;;;;;21.14;52.61;102410.00;5016704;28;45506;-79
2024/01/26 09:52:52;;;;;;;;;2.00;2.00;;;;;21.40;52.60;102432.03;5016672;28;45387;-80
2024/01/26 09:55:19;;;;;;;;;1.25;1.25;;;;;21.53;52.04;102447.50;4999273;28;45373;-81
2024/01/26 09:57:47;;;;;;;;;0.00;0.00;;;;;21.47;52.57;102438.84;4999219;28;45356;-82
2024/01/26 10:00:13;;;;;;;;;1.50;0.75;;;;;21.35;52.74;102458.75;5016311;28;45403;-80
2024/01/26 10:02:39;;;;;;;;;2.00;1.00;;;;;21.51;51.35;102494.97;5028733;28;45380;-78
2024/01/26 10:05:06;;;;;;;;;0.25;0.25;;;;;21.50;50.38;102502.28;5018835;28;45261;-77
2024/01/26 10:07:31;;;;;;;;;0.00;0.00;;;;;21.46;49.62;102464.38;5017929;28;45536;-80
2024/01/26 10:09:56;;;;;;;;;1.00;1.00;;;;;21.45;49.04;102488.03;5016841;28;45389;-79
2024/01/26 10:12:23;;;;;;;;;0.00;0.00;;;;;21.43;48.13;102475.50;5018134;28;45273;-78
2024/01/26 10:14:49;;;;;;;;;0.25;0.25;;;;;21.33;47.96;102486.13;5016990;28;45498;-77
2024/01/26 10:17:18;;;;;;;;;1.50;0.75;;;;;21.30;47.70;102502.66;5016220;28;45386;-78
2024/01/26 10:19:43;;;;;;;;;0.00;0.00;;;;;21.38;47.11;102515.81;5015974;28;45404;-81
2024/01/26 10:22:08;;;;;;;;;0.75;0.00;;;;;21.23;45.36;102505.88;5016245;28;46081;-79
2024/01/26 10:24:34;;;;;;;;;1.50;0.00;;;;;21.19;45.14;102499.72;5015356;28;45463;-79
2024/01/26 10:26:59;;;;;;;;;1.00;0.00;;;;;21.05;43.90;102506.03;5006798;28;45605;-78
2024/01/26 10:29:25;;;;;;;;;0.00;0.00;;;;;20.96;42.87;102522.06;5014929;28;45493;-79
2024/01/26 10:31:51;;;;;;;;;0.00;0.00;;;;;21.12;43.03;102544.69;4998264;28;46723;-79
2024/01/26 10:34:18;;;;;;;;;0.00;0.00;;;;;21.23;43.09;102531.31;5016397;28;45433;-81
2024/01/26 10:36:48;;;;;;;;;1.00;0.00;;;;;21.25;42.41;102529.38;4998262;28;45416;-75
2024/01/26 10:39:21;;;;;;;;;0.00;0.00;;;;;21.34;42.31;102553.34;4998230;28;45475;-77
2024/01/26 10:41:48;;;;;;;;;0.00;0.00;;;;;21.24;41.39;102552.16;5012084;28;45475;-75
2024/01/26 10:44:15;;;;;;;;;0.00;0.00;;;;;21.30;41.82;102557.22;5016337;28;45487;-81
2024/01/26 10:46:42;;;;;;;;;0.00;0.00;;;;;21.28;41.95;102555.56;5016093;28;45404;-80
2024/01/26 10:49:09;;;;;;;;;2.75;0.75;;;;;21.09;41.68;102555.81;5016569;28;45283;-81
2024/01/26 10:51:37;;;;;;;;;1.25;1.00;;;;;21.08;41.67;102554.06;5015732;28;46242;-80
2024/01/26 10:54:08;;;;;;;;;0.00;0.00;;;;;21.11;42.29;102556.56;5015046;28;45456;-79
2024/01/26 10:56:33;;;;;;;;;0.00;0.00;;;;;21.33;41.61;102567.09;5015970;28;45360;-79
2024/01/26 10:59:00;;;;;;;;;0.00;0.00;;;;;21.34;41.65;102527.91;5016735;28;45337;-80
2024/01/26 11:01:26;;;;;;;;;0.00;0.00;;;;;21.72;41.46;102564.56;5016638;28;45630;-80
2024/01/26 11:03:54;;;;;;;;;0.25;0.25;;;;;21.91;41.68;102567.00;5009601;28;45392;-78
2024/01/26 11:06:20;;;;;;;;;1.00;1.00;;;;;22.27;40.51;102574.69;5016474;28;45487;-76
2024/01/26 11:08:46;;;;;;;;;1.75;1.00;;;;;22.38;40.54;102584.88;4998532;28;46086;-83
2024/01/26 11:11:15;;;;;;;;;0.00;0.00;;;;;22.23;39.64;102593.13;5015790;28;46529;-74
2024/01/26 11:13:40;;;;;;;;;2.00;0.00;;;;;22.38;40.03;102604.00;5015665;28;45370;-78
2024/01/26 11:16:07;;;;;;;;;0.50;0.50;;;;;22.42;39.49;102611.03;5015781;28;45536;-79
2024/01/26 11:18:35;;;;;;;;;0.25;0.00;;;;;22.37;39.27;102611.31;4997193;28;46105;-75
2024/01/26 11:21:02;;;;;;;;;2.75;1.00;;;;;22.15;38.92;102619.19;5015183;28;47092;-76
2024/01/26 11:23:38;;;;;;;;;1.00;1.00;;;;;22.35;39.26;102604.22;5015553;28;45320;-74
2024/01/26 11:26:13;;;;;;;;;2.50;1.00;;;;;22.27;38.73;102612.94;5012877;28;45535;-75
2024/01/26 11:28:39;;;;;;;;;2.25;1.00;;;;;22.14;38.72;102620.16;5008568;28;45483;-77
2024/01/26 11:31:05;;;;;;;;;1.50;1.00;;;;;22.17;38.62;102626.31;5015324;28;46292;-76
2024/01/26 11:33:39;;;;;;;;;3.50;2.25;;;;;22.26;38.46;102606.59;4997699;28;45532;-77
2024/01/26 11:36:06;;;;;;;;;2.75;1.00;;;;;22.56;37.74;102641.94;5015330;28;45353;-76
2024/01/26 11:38:35;;;;;;;;;2.00;1.75;;;;;22.76;36.14;102642.50;4997434;28;46450;-76
2024/01/26 11:41:01;;;;;;;;;1.00;0.00;;;;;22.82;36.59;102648.44;5013779;28;45427;-76
2024/01/26 11:43:27;;;;;;;;;1.00;1.00;;;;;23.02;36.65;102658.03;5015316;28;45440;-76
2024/01/26 11:45:55;;;;;;;;;2.50;1.00;;;;;22.99;35.50;102652.75;5015548;28;45456;-77
2024/01/26 11:48:21;;;;;;;;;1.50;1.00;;;;;22.93;35.08;102658.66;5015101;28;45647;-76
2024/01/26 11:50:47;;;;;;;;;1.00;1.00;;;;;22.91;35.00;102642.34;5014805;28;45564;-76
2024/01/26 11:53:17;;;;;;;;;1.25;1.00;;;;;23.13;35.15;102671.00;5014778;28;45362;-76
2024/01/26 11:55:43;;;;;;;;;1.50;1.00;;;;;23.27;32.57;102659.97;4997498;28;45337;-77
2024/01/26 11:58:10;;;;;;;;;2.00;2.00;;;;;23.34;31.98;102648.47;5015149;28;45424;-77
2024/01/26 12:00:36;;;;;;;;;2.50;1.25;;;;;23.31;30.68;102639.59;5014706;28;46119;-76
2024/01/26 12:03:08;;;;;;;;;1.00;1.00;;;;;23.54;30.06;102670.91;5026371;28;45529;-77
2024/01/26 12:05:35;;;;;;;;;2.25;2.25;;;;;23.65;29.32;102655.44;5015280;28;46159;-76
2024/01/26 12:08:04;;;;;;;;;3.75;2.50;;;;;24.02;29.21;102670.13;5014752;28;45364;-78
2024/01/26 12:10:30;;;;;;;;;2.25;1.00;;;;;24.22;28.79;102663.25;5015060;28;46242;-76
2024/01/26 12:12:56;;;;;;;;;1.50;1.25;;;;;24.30;29.45;102669.06;5014441;28;45397;-76
2024/01/26 12:15:21;;;;;;;;;1.00;1.00;;;;;24.32;28.70;102658.84;5015221;28;45400;-76
2024/01/26 12:17:47;;;;;;;;;4.00;1.00;;;;;24.34;28.28;102680.66;5014619;28;45541;-78
2024/01/26 12:20:12;;;;;;;;;3.00;1.00;;;;;24.17;27.51;102697.41;5014957;28;45883;-78
2024/01/26 12:22:38;;;;;;;;;1.00;0.00;;;;;23.98;28.31;102690.53;5013932;28;45305;-77
2024/01/26 12:25:06;;;;;;;;;2.25;1.00;;;;;23.73;28.42;102669.47;4997036;28;45358;-77
2024/01/26 12:27:33;;;;;;;;;0.00;0.00;;;;;23.86;28.32;102691.41;5003146;28;45935;-77
2024/01/26 12:29:58;;;;;;;;;2.00;0.00;;;;;23.87;28.59;102693.16;5015084;28;45388;-77
2024/01/26 12:32:25;;;;;;;;;1.00;1.00;;;;;23.86;27.58;102687.78;4996594;28;45523;-76
2024/01/26 12:34:52;;;;;;;;;1.25;1.25;;;;;23.70;27.74;102680.66;4997016;28;45402;-78
2024/01/26 12:37:17;;;;;;;;;1.25;1.25;;;;;23.70;27.78;102705.31;5014972;28;45217;-77
2024/01/26 12:39:42;;;;;;;;;1.25;1.00;;;;;23.67;27.44;102707.38;5014450;28;45251;-78
2024/01/26 12:42:07;;;;;;;;;2.00;1.00;;;;;23.48;27.06;102701.41;5010481;28;55516;-74
2024/01/26 12:44:33;;;;;;;;;1.00;1.00;;;;;23.31;27.03;102714.38;5015644;28;45238;-76
2024/01/26 12:47:00;;;;;;;;;1.00;1.00;;;;;23.14;27.98;102724.75;5014301;28;45381;-76
2024/01/26 12:49:26;;;;;;;;;3.00;1.00;;;;;23.09;28.07;102714.09;5015172;28;45615;-77
2024/01/26 12:51:54;;;;;;;;;0.25;0.25;;;;;22.97;27.22;102712.16;5014406;28;45414;-76
2024/01/26 12:54:20;;;;;;;;;0.50;0.50;;;;;22.85;28.56;102715.75;5014381;28;45396;-74
2024/01/26 12:56:45;;;;;;;;;0.00;0.00;;;;;22.90;27.88;102733.59;5012895;28;46301;-73
2024/01/26 12:59:11;;;;;;;;;2.00;0.50;;;;;22.84;27.13;102727.66;5014366;28;46236;-74
2024/01/26 13:01:37;;;;;;;;;0.00;0.00;;;;;22.70;28.03;102727.66;5015834;28;45336;-70
2024/01/26 13:04:04;;;;;;;;;2.00;0.00;;;;;22.49;24.87;102727.19;5022403;28;45324;-70
2024/01/26 13:06:31;;;;;;;;;0.00;0.00;;;;;22.26;25.36;102721.34;5009080;28;45431;-71
2024/01/26 13:08:57;;;;;;;;;0.00;0.00;;;;;22.38;26.14;102721.53;5013011;28;45372;-73
2024/01/26 13:11:23;;;;;;;;;1.00;1.00;;;;;22.44;25.69;102723.88;5013247;28;45391;-71
2024/01/26 13:13:48;;;;;;;;;0.00;0.00;;;;;22.38;26.39;102727.88;5012896;28;45588;-72
2024/01/26 13:16:14;;;;;;;;;0.00;0.00;;;;;22.04;26.20;102701.81;5005934;28;45512;-70
2024/01/26 13:18:45;;;;;;;;;2.00;2.00;;;;;22.11;26.39;102721.44;5014030;28;46318;-71
2024/01/26 13:21:11;;;;;;;;;1.00;0.00;;;;;22.02;26.32;102716.56;5013241;28;45812;-72
2024/01/26 13:23:37;;;;;;;;;0.00;0.00;;;;;21.95;25.98;102723.34;5013919;28;45405;-71
2024/01/26 13:26:02;;;;;;;;;0.00;0.00;;;;;21.93;26.28;102711.66;4993686;28;45515;-72
2024/01/26 13:28:28;;;;;;;;;0.00;0.00;;;;;21.92;26.25;102707.16;5005127;28;47071;-72
2024/01/26 13:30:53;;;;;;;;;0.00;0.00;;;;;21.82;26.15;102709.56;5013606;28;45311;-72
2024/01/26 13:33:19;;;;;;;;;2.00;0.00;;;;;21.82;26.51;102712.31;5013866;28;45329;-72
2024/01/26 13:35:46;;;;;;;;;0.25;0.00;;;;;21.89;26.00;102724.59;4992034;28;46163;-72
2024/01/26 13:38:11;;;;;;;;;0.00;0.00;;;;;21.83;26.23;102723.13;5011041;28;45498;-70
2024/01/26 13:40:37;;;;;;;;;1.00;1.00;;;;;21.81;26.45;102732.38;5010422;28;45534;-69
2024/01/26 13:43:03;;;;;;;;;0.50;0.50;;;;;21.68;25.62;102725.94;5014004;28;54912;-72
2024/01/26 13:45:28;;;;;;;;;0.00;0.00;;;;;21.78;26.93;102747.09;4996167;28;46030;-70
2024/01/26 13:47:54;;;;;;;;;2.00;0.00;;;;;21.81;26.44;102744.19;4995660;28;47325;-71
2024/01/26 13:50:19;;;;;;;;;1.00;1.00;;;;;22.06;27.17;102768.16;5014069;28;45684;-71
2024/01/26 13:52:44;;;;;;;;;0.00;0.00;;;;;22.10;27.20;102779.78;5014325;28;45761;-72
2024/01/26 13:55:10;;;;;;;;;0.00;0.00;;;;;21.98;27.16;102754.09;4996358;28;46119;-71
2024/01/26 13:57:35;;;;;;;;;0.00;0.00;;;;;22.03;27.26;102757.41;5013940;28;45266;-69
2024/01/26 14:00:01;;;;;;;;;0.00;0.00;;;;;21.92;27.18;102773.59;5017238;28;45388;-70
2024/01/26 14:02:26;;;;;;;;;0.00;0.00;;;;;21.84;27.57;102763.13;5026397;28;45542;-72
2024/01/26 14:04:52;;;;;;;;;0.00;0.00;;;;;21.73;27.01;102770.22;5019535;28;45482;-71
2024/01/26 14:07:17;;;;;;;;;0.00;0.00;;;;;21.76;27.12;102767.31;5013496;28;45486;-73
2024/01/26 14:09:42;;;;;;;;;1.75;0.50;;;;;21.86;27.13;102757.56;5012826;28;45282;-71
2024/01/26 14:12:08;;;;;;;;;0.00;0.00;;;;;22.04;27.90;102775.56;5009452;28;45400;-70
2024/01/26 14:14:33;;;;;;;;;0.00;0.00;;;;;22.24;27.00;102780.69;5016385;28;45518;-72
2024/01/26 14:16:59;;;;;;;;;0.00;0.00;;;;;22.39;26.88;102769.75;5016802;28;46051;-71
2024/01/26 14:19:25;;;;;;;;;0.00;0.00;;;;;22.61;26.74;102779.22;4998638;28;45617;-72
2024/01/26 14:21:51;;;;;;;;;0.00;0.00;;;;;22.84;25.73;102780.50;5016151;28;45343;-71
2024/01/26 14:24:17;;;;;;;;;1.50;0.00;;;;;23.37;25.54;102770.59;5008825;28;46049;-72
2024/01/26 14:26:42;;;;;;;;;0.00;0.00;;;;;24.41;23.92;102775.19;5008441;28;45436;-71
2024/01/26 14:29:13;;;;;;;;;0.00;0.00;;;;;25.45;23.43;102776.56;5012319;28;45357;-71
2024/01/26 14:31:38;;;;;;;;;0.00;0.00;;;;;26.32;22.12;102760.53;5016491;28;45520;-70
2024/01/26 14:34:07;;;;;;;;;2.00;1.00;;;;;27.10;21.36;102773.38;5015717;28;50132;-71
2024/01/26 14:36:33;;;;;;;;;0.75;0.75;;;;;27.47;21.19;102766.53;5015620;28;45522;-70
2024/01/26 14:38:59;;;;;;;;;0.00;0.00;;;;;27.88;20.43;102786.03;5015353;28;45462;-72
2024/01/26 14:41:24;;;;;;;;;0.00;0.00;;;;;27.85;20.56;102792.66;5012751;28;45460;-72
2024/01/26 14:43:50;;;;;;;;;0.00;0.00;;;;;28.00;20.39;102794.06;5015518;28;45363;-71
2024/01/26 14:46:15;;;;;;;;;2.00;0.00;;;;;27.99;20.10;102785.94;5016289;28;45345;-72
2024/01/26 14:48:41;;;;;;;;;0.75;0.00;;;;;28.05;20.84;102791.81;5016085;28;45519;-71
2024/01/26 14:51:08;;;;;;;;;0.00;0.00;;;;;28.03;21.18;102796.56;5016624;28;45486;-72
2024/01/26 14:53:33;;;;;;;;;0.25;0.25;;;;;27.93;21.48;102812.16;5016134;28;45289;-72
2024/01/26 14:55:59;;;;;;;;;0.00;0.00;;;;;27.84;21.43;102808.31;5016406;28;45349;-72
2024/01/26 14:58:28;;;;;;;;;2.25;1.00;;;;;27.79;21.88;102807.88;5015806;28;50529;-73
2024/01/26 15:00:54;;;;;;;;;0.25;0.00;;;;;27.86;21.16;102805.44;5017023;28;45325;-73
2024/01/26 15:03:20;;;;;;;;;0.00;0.00;;;;;27.72;21.61;102825.94;5028197;28;45225;-75
2024/01/26 15:05:45;;;;;;;;;0.50;0.00;;;;;27.48;21.21;102822.47;5015762;28;45308;-74
2024/01/26 15:08:10;;;;;;;;;2.00;0.50;;;;;27.40;21.97;102836.00;5015688;28;45183;-74
2024/01/26 15:10:36;;;;;;;;;2.00;1.00;;;;;27.29;22.14;102830.56;5014518;28;45351;-75
2024/01/26 15:13:01;;;;;;;;;0.00;0.00;;;;;27.18;21.65;102830.56;5015364;28;45352;-74
2024/01/26 15:15:26;;;;;;;;;0.00;0.00;;;;;27.07;21.61;102815.81;5016237;28;45835;-74
2024/01/26 15:17:52;;;;;;;;;0.00;0.00;;;;;27.05;22.34;102816.97;4997850;28;45462;-75
2024/01/26 15:20:17;;;;;;;;;0.00;0.00;;;;;26.94;21.89;102825.22;5016097;28;45344;-75
2024/01/26 15:22:48;;;;;;;;;1.25;0.50;;;;;26.65;22.52;102825.69;5015568;28;45375;-74
2024/01/26 15:25:14;;;;;;;;;0.00;0.00;;;;;26.26;22.54;102832.53;5015923;28;46126;-74
2024/01/26 15:27:40;;;;;;;;;1.50;0.00;;;;;25.81;22.87;102853.44;5004910;28;45377;-74
2024/01/26 15:30:07;;;;;;;;;1.00;0.25;;;;;25.24;23.72;102861.44;5015907;28;45268;-74
2024/01/26 15:32:33;;;;;;;;;1.50;0.00;;;;;25.17;24.12;102863.78;5015314;28;45392;-74
2024/01/26 15:34:58;;;;;;;;;0.00;0.00;;;;;25.16;22.59;102869.38;5015579;28;45555;-75
2024/01/26 15:37:24;;;;;;;;;1.00;0.00;;;;;25.04;22.92;102853.81;5014382;28;58310;-75
2024/01/26 15:39:49;;;;;;;;;0.00;0.00;;;;;24.92;22.66;102868.44;5014468;28;45490;-74
2024/01/26 15:42:16;;;;;;;;;1.00;0.00;;;;;24.56;23.49;102870.06;5012387;28;57176;-73
2024/01/26 15:44:42;;;;;;;;;2.50;0.00;;;;;24.38;23.35;102875.00;5015989;28;45534;-73
2024/01/26 15:47:08;;;;;;;;;3.00;0.25;;;;;24.25;24.05;102885.03;5015161;28;45333;-73
2024/01/26 15:49:33;;;;;;;;;2.00;0.00;;;;;24.10;24.44;102892.44;5015415;28;45420;-74
2024/01/26 15:51:59;;;;;;;;;2.00;0.50;;;;;23.94;24.18;102891.75;5014521;28;45423;-73
2024/01/26 15:54:25;;;;;;;;;0.00;0.00;;;;;23.76;24.52;102885.66;5015613;28;45310;-75
2024/01/26 15:56:50;;;;;;;;;0.00;0.00;;;;;23.60;24.57;102892.25;5015670;28;45521;-77
2024/01/26 15:59:16;;;;;;;;;1.50;1.00;;;;;23.45;24.67;102896.88;4999049;28;45324;-76
2024/01/26 16:01:42;;;;;;;;;1.00;0.00;;;;;23.28;24.46;102906.19;5017891;28;45878;-74
2024/01/26 16:04:07;;;;;;;;;0.00;0.00;;;;;23.10;24.12;102909.25;5024197;28;46069;-72
2024/01/26 16:06:32;;;;;;;;;0.00;0.00;;;;;22.81;23.87;102906.50;4995799;28;53278;-73
2024/01/26 16:08:58;;;;;;;;;0.00;0.00;;;;;22.61;23.76;102912.31;5015348;28;45312;-74
2024/01/26 16:11:23;;;;;;;;;1.50;0.00;;;;;22.37;23.81;102909.22;5012827;28;45582;-74
2024/01/26 16:13:48;;;;;;;;;0.00;0.00;;;;;22.22;24.21;102927.44;4997058;28;45368;-72
2024/01/26 16:16:16;;;;;;;;;0.00;0.00;;;;;22.00;24.61;102924.25;5014385;28;45352;-73
2024/01/26 16:18:41;;;;;;;;;2.00;0.00;;;;;21.99;24.94;102935.25;5014785;28;45324;-72
2024/01/26 16:21:06;;;;;;;;;0.00;0.00;;;;;21.72;24.71;102937.72;5009282;28;45494;-72
2024/01/26 16:23:32;;;;;;;;;2.25;0.00;;;;;21.42;24.86;102930.34;5014627;28;45354;-73
2024/01/26 16:25:57;;;;;;;;;0.00;0.00;;;;;21.16;25.46;102919.97;5012208;28;53875;-71
2024/01/26 16:28:22;;;;;;;;;0.00;0.00;;;;;21.08;25.67;102938.63;5005059;28;45651;-73
2024/01/26 16:30:48;;;;;;;;;0.00;0.00;;;;;20.92;25.81;102934.97;5014413;28;45456;-71
2024/01/26 16:33:17;;;;;;;;;0.75;0.75;;;;;20.95;26.29;102940.25;5014621;28;45467;-72
2024/01/26 16:35:43;;;;;;;;;0.50;0.00;;;;;20.88;26.47;102945.16;5014317;28;45419;-73
2024/01/26 16:38:08;;;;;;;;;0.00;0.00;;;;;20.80;26.47;102954.72;5014367;28;45453;-71
2024/01/26 16:40:34;;;;;;;;;0.00;0.00;;;;;20.67;26.55;102955.34;5009800;28;52297;-74
2024/01/26 16:42:59;;;;;;;;;0.50;0.50;;;;;20.64;26.48;102960.09;5014210;28;46055;-74
2024/01/26 16:45:24;;;;;;;;;0.25;0.25;;;;;20.50;27.13;102974.44;5014718;28;45369;-74
2024/01/26 16:47:50;;;;;;;;;0.00;0.00;;;;;20.48;26.95;102973.66;5014328;28;45339;-71